Flight Track Log - Related Links

Times and Time Zones

All times are in EDT time to prevent confusion due to time zone crossing. See the VIR4 flight status page for this flight to view local times or setup timezone preferences in your user account.

Time Position Orientation Groundspeed Altitude Reporting Facility
EDT Latitude Longitude Course Direction KTS MPH feet Rate Location/Type
Tue 06:43:47 PM 40.6420 -73.7700 30° Northeast 146 168 100  Level FlightAware ADS-B
Tue 06:44:12 PM 40.6560 -73.7580 33° Northeast 150 173 700 1,800 Climbing FlightAware ADS-B
Tue 06:44:27 PM 40.6620 -73.7480 52° Northeast 147 169 1,300 1,800 Climbing FlightAware ADS-B
Tue 06:44:42 PM 40.6640 -73.7330 80° East 158 182 1,600 933 Climbing FlightAware ADS-B
Tue 06:45:12 PM 40.6630 -73.7060 93° East 192 221 2,000 1,091 Climbing FlightAware ADS-B
Tue 06:45:37 PM 40.6740 -73.6720 67° East 223 257 2,600 1,964 Climbing FlightAware ADS-B
Tue 06:46:07 PM 40.6970 -73.6410 46° Northeast 245 282 3,800 2,509 Climbing FlightAware ADS-B
Tue 06:46:32 PM 40.7160 -73.6150 46° Northeast 254 292 4,900 2,850 Climbing FlightAware ADS-B
Tue 06:46:47 PM 40.7280 -73.5970 49° Northeast 258 297 5,700 3,200 Climbing FlightAware ADS-B
Tue 06:47:17 PM 40.7530 -73.5620 47° Northeast 260 299 7,300 2,945 Climbing FlightAware ADS-B
Tue 06:47:42 PM 40.7780 -73.5360 38° Northeast 267 307 8,400 2,700 Climbing FlightAware ADS-B
Tue 06:47:57 PM 40.7940 -73.5260 25° Northeast 269 310 9,100 2,291 Climbing FlightAware ADS-B
Tue 06:48:37 PM 40.8400 -73.4960 26° Northeast 292 336 10,500 1,482 Climbing FlightAware ADS-B
Tue 06:49:22 PM 40.8990 -73.4580 26° Northeast 345 397 11,200 1,482 Climbing FlightAware ADS-B
Tue 06:50:02 PM 40.9590 -73.4180 27° Northeast 364 419 12,600 2,118 Climbing FlightAware ADS-B
Tue 06:50:47 PM 41.0280 -73.3720 27° Northeast 378 435 14,200 2,259 Climbing FlightAware ADS-B
Tue 06:51:27 PM 41.0930 -73.3300 26° Northeast 385 443 15,800 2,314 Climbing FlightAware ADS-B
Tue 06:51:57 PM 41.1350 -73.2900 36° Northeast 394 453 16,900 2,057 Climbing FlightAware ADS-B
Tue 06:52:37 PM 41.1860 -73.2130 49° Northeast 404 465 18,200 1,846 Climbing FlightAware ADS-B
Tue 06:53:15 PM 41.2356 -73.1415 47° Northeast 417 480 19,300 1,714 Climbing FlightAware ADS-B
Tue 06:53:47 PM 41.2781 -73.0794 48° Northeast 425 489 20,200 1,793 Climbing FlightAware ADS-B
Tue 06:54:42 PM 41.3500 -72.9740 48° Northeast 438 504 21,900 1,760 Climbing FlightAware ADS-B
Tue 06:55:02 PM 41.3796 -72.9313 47° Northeast 436 502 22,400 1,200 Climbing FlightAware ADS-B
Tue 06:56:07 PM 41.4690 -72.8010 47° Northeast 470 541 23,600 1,167 Climbing FlightAware ADS-B
Tue 06:56:14 PM 41.4837 -72.7789 48° Northeast 473 544 23,800 1,467 Climbing FlightAware ADS-B
Tue 06:56:52 PM 41.5380 -72.6990 48° Northeast 482 555 24,700 1,562 Climbing FlightAware ADS-B
Tue 06:57:27 PM 41.5870 -72.6270 48° Northeast 485 558 25,700 1,579 Climbing FlightAware ADS-B
Tue 06:58:27 PM 41.6690 -72.4820 53° Northeast 491 565 27,200 1,429 Climbing FlightAware ADS-B
Tue 06:59:12 PM 41.7230 -72.3630 59° Northeast 501 577 28,200 947 Climbing FlightAware ADS-B
Tue 07:00:02 PM 41.7790 -72.2400 59° Northeast 507 583 28,700 1,429 Climbing FlightAware ADS-B
Tue 07:00:57 PM 41.8410 -72.1050 58° Northeast 515 593 30,700 2,526 Climbing FlightAware ADS-B
Tue 07:01:37 PM 41.9260 -71.9840 47° Northeast 529 609 32,700 1,945 Climbing FlightAware ADS-B
Tue 07:03:22 PM 42.0920 -71.7360 48° Northeast 536 617 35,400 1,531 Climbing FlightAware ADS-B
Tue 07:04:02 PM 42.1580 -71.6350 49° Northeast 537 618 36,400 1,129 Climbing FlightAware ADS-B
Tue 07:04:47 PM 42.2330 -71.5210 48° Northeast 536 617 37,000 424 Climbing FlightAware ADS-B
Tue 07:05:27 PM 42.2960 -71.4260 48° Northeast 538 619 37,000 225 Level FlightAware ADS-B
Tue 07:06:07 PM 42.3660 -71.3190 48° Northeast 541 623 37,300 847 Climbing FlightAware ADS-B
Tue 07:06:52 PM 42.4380 -71.2080 49° Northeast 539 620 38,200 1,059 Climbing FlightAware ADS-B
Tue 07:07:32 PM 42.5060 -71.1040 48° Northeast 541 623 38,800 565 Climbing FlightAware ADS-B
Tue 07:08:17 PM 42.5800 -70.9890 49° Northeast 543 625 39,000 141 Climbing FlightAware ADS-B
Tue 07:08:57 PM 42.6530 -70.8760 49° Northeast 544 626 39,000  Level FlightAware ADS-B
Tue 07:09:37 PM 42.7190 -70.7740 49° Northeast 548 631 39,000  Level FlightAware ADS-B
Tue 07:10:22 PM 42.7900 -70.6640 49° Northeast 551 634 39,000  Level FlightAware ADS-B
Tue 07:11:02 PM 42.8610 -70.5520 49° Northeast 552 635 39,000  Level FlightAware ADS-B
Tue 07:11:47 PM 42.9380 -70.4310 49° Northeast 552 635 39,000  Level FlightAware ADS-B
Tue 07:12:27 PM 43.0040 -70.3270 49° Northeast 551 634 39,000  Level FlightAware ADS-B
Tue 07:13:07 PM 43.0700 -70.2220 49° Northeast 551 634 39,000  Level FlightAware ADS-B
Tue 07:13:52 PM 43.1440 -70.1050 49° Northeast 552 635 39,000  Level FlightAware ADS-B
Tue 07:14:32 PM 43.2080 -70.0030 49° Northeast 551 634 39,000  Level FlightAware ADS-B
Tue 07:15:17 PM 43.2840 -69.8800 50° Northeast 551 634 39,000  Level FlightAware ADS-B
Tue 07:15:40 PM 43.3208 -69.8231 50° Northeast 543 625 39,000  Level Boston Center
Tue 07:16:40 PM 43.4169 -69.6644 50° Northeast 543 625 39,000  Level Boston Center
Tue 07:17:40 PM 43.5172 -69.5025 49° Northeast 543 625 39,000  Level Boston Center
Tue 07:22:52 PM 44.0330 -68.6520 49° Northeast 557 641 39,000  Level FlightAware ADS-B
Tue 07:23:32 PM 44.0980 -68.5430 50° Northeast 557 641 39,000  Level FlightAware ADS-B
Tue 07:24:22 PM 44.1820 -68.4010 50° Northeast 556 640 39,000  Level FlightAware ADS-B
Tue 07:25:02 PM 44.2510 -68.2850 50° Northeast 555 639 39,000  Level FlightAware ADS-B
Tue 07:25:47 PM 44.3200 -68.1660 51° Northeast 556 640 39,000  Level FlightAware ADS-B
Tue 07:26:27 PM 44.3870 -68.0510 51° Northeast 557 641 39,000  Level FlightAware ADS-B
Tue 07:27:12 PM 44.4620 -67.9240 50° Northeast 556 640 39,000  Level FlightAware ADS-B
Tue 07:27:57 PM 44.5340 -67.7990 51° Northeast 558 642 39,000  Level FlightAware ADS-B
Tue 07:28:37 PM 44.5980 -67.6890 51° Northeast 557 641 39,000  Level FlightAware ADS-B
Tue 07:29:17 PM 44.6630 -67.5760 51° Northeast 556 640 39,000  Level FlightAware ADS-B
Tue 07:30:02 PM 44.7340 -67.4510 51° Northeast 557 641 39,000  Level FlightAware ADS-B
Tue 07:30:42 PM 44.8000 -67.3370 51° Northeast 558 642 39,000  Level FlightAware ADS-B
Tue 07:31:27 PM 44.8720 -67.2100 51° Northeast 558 642 39,000  Level FlightAware ADS-B
Tue 07:32:02 PM 44.9250 -67.1160 51° Northeast 558 642 39,000  Level FlightAware ADS-B
Tue 07:32:37 PM 44.9830 -67.0210 49° Northeast 556 640 39,000  Level FlightAware ADS-B
Tue 07:33:27 PM 45.0710 -66.8760 49° Northeast 557 641 39,000  Level FlightAware ADS-B
Tue 07:34:07 PM 45.1380 -66.7650 49° Northeast 558 642 39,000  Level FlightAware ADS-B
Tue 07:34:52 PM 45.2130 -66.6390 50° Northeast 558 642 39,000  Level FlightAware ADS-B
Tue 07:35:37 PM 45.2870 -66.5150 50° Northeast 557 641 39,000  Level FlightAware ADS-B
Tue 07:36:17 PM 45.3510 -66.4060 50° Northeast 557 641 39,000  Level FlightAware ADS-B
Tue 07:37:02 PM 45.4250 -66.2810 50° Northeast 557 641 39,000  Level FlightAware ADS-B
Tue 07:37:42 PM 45.4930 -66.1660 50° Northeast 558 642 39,000  Level FlightAware ADS-B
Tue 07:38:27 PM 45.5660 -66.0400 50° Northeast 557 641 39,000  Level FlightAware ADS-B
Tue 07:39:07 PM 45.6320 -65.9270 50° Northeast 557 641 39,000  Level FlightAware ADS-B
Tue 07:39:47 PM 45.6980 -65.8140 50° Northeast 557 641 39,000  Level FlightAware ADS-B
Tue 07:40:32 PM 45.7720 -65.6850 51° Northeast 555 639 39,000  Level FlightAware ADS-B
Tue 07:41:12 PM 45.8360 -65.5730 51° Northeast 554 638 39,000  Level FlightAware ADS-B
Tue 07:41:52 PM 45.8930 -65.4740 50° Northeast 555 639 39,000  Level FlightAware ADS-B
Tue 07:42:37 PM 45.9750 -65.3310 50° Northeast 555 639 39,000  Level FlightAware ADS-B
Tue 07:43:17 PM 46.0420 -65.2120 51° Northeast 555 639 39,000  Level FlightAware ADS-B
Tue 07:43:57 PM 46.1040 -65.1010 51° Northeast 555 639 39,000  Level FlightAware ADS-B
Tue 07:44:42 PM 46.1720 -64.9860 49° Northeast 555 639 39,000  Level FlightAware ADS-B
Tue 07:45:22 PM 46.2280 -64.8890 50° Northeast 555 639 39,000  Level FlightAware ADS-B
Tue 07:46:17 PM 46.3260 -64.7070 52° Northeast 554 638 39,000  Level FlightAware ADS-B
Tue 07:46:57 PM 46.3800 -64.6090 51° Northeast 554 638 39,000  Level FlightAware ADS-B
Tue 07:47:47 PM 46.4490 -64.4860 51° Northeast 554 638 39,000  Level FlightAware ADS-B
Tue 07:48:27 PM 46.5040 -64.3870 51° Northeast 554 638 39,000  Level FlightAware ADS-B
Tue 07:49:07 PM 46.5590 -64.2890 51° Northeast 554 638 39,000  Level FlightAware ADS-B
Tue 07:49:47 PM 46.6130 -64.1900 52° Northeast 554 638 39,000  Level FlightAware ADS-B
Tue 07:50:27 PM 46.6680 -64.0920 51° Northeast 554 638 39,000  Level FlightAware ADS-B
Tue 07:51:07 PM 46.7230 -63.9930 51° Northeast 554 638 39,000  Level FlightAware ADS-B
Tue 07:51:57 PM 46.7920 -63.8690 51° Northeast 554 638 39,000  Level FlightAware ADS-B
Tue 07:52:37 PM 46.8460 -63.7700 51° Northeast 554 638 39,000  Level FlightAware ADS-B
Tue 07:53:17 PM 46.9010 -63.6710 51° Northeast 554 638 39,000  Level FlightAware ADS-B
Tue 07:53:57 PM 46.9560 -63.5720 51° Northeast 554 638 39,000  Level FlightAware ADS-B
Tue 07:54:37 PM 47.0110 -63.4730 51° Northeast 554 638 39,000  Level FlightAware ADS-B
Tue 07:55:27 PM 47.0790 -63.3490 51° Northeast 554 638 39,000  Level FlightAware ADS-B
Tue 07:56:08 PM 47.2333 -62.9833 51° Northeast 540 621 39,000  Level Gander Center
Tue 07:56:31 PM 47.2833 -62.8833 54° Northeast 540 621 39,000  Level Moncton Center
Tue 07:57:31 PM 47.3667 -62.7167 54° Northeast 540 621 39,000  Level Moncton Center
Tue 07:58:31 PM 47.4667 -62.5333 51° Northeast 540 621 39,000  Level Moncton Center
Tue 07:59:31 PM 47.5500 -62.3667 53° Northeast 540 621 39,000  Level Moncton Center
Tue 08:00:31 PM 47.6500 -62.1667 53° Northeast 540 621 39,000  Level Moncton Center
Tue 08:01:08 PM 47.7167 -62.0833 40° Northeast 540 621 39,000  Level Gander Center
Tue 08:01:31 PM 47.7500 -62.0000 59° Northeast 540 621 39,000  Level Moncton Center
Tue 08:02:31 PM 47.8167 -61.8333 59° Northeast 540 621 39,000  Level Moncton Center
Tue 08:03:08 PM 47.8833 -61.7333 45° Northeast 530 610 39,000  Level Gander Center
Tue 08:04:08 PM 47.9833 -61.5500 51° Northeast 530 610 39,000  Level Gander Center
Tue 08:04:31 PM 48.0167 -61.5000 45° Northeast 520 598 39,000  Level Moncton Center
Tue 08:05:31 PM 48.1333 -61.3167 46° Northeast 530 610 39,000  Level Moncton Center
Tue 08:06:08 PM 48.1833 -61.2333 48° Northeast 530 610 39,000  Level Gander Center
Tue 08:07:08 PM 48.2833 -61.0500 51° Northeast 530 610 39,000  Level Gander Center
Tue 08:07:31 PM 48.3167 -61.0000 45° Northeast 530 610 39,000  Level Moncton Center
Tue 08:08:31 PM 48.4167 -60.8333 48° Northeast 520 598 39,000  Level Moncton Center
Tue 08:09:31 PM 48.5167 -60.6833 45° Northeast 520 598 39,000  Level Moncton Center
Tue 08:10:31 PM 48.6000 -60.5000 55° Northeast 520 598 39,000  Level Moncton Center
Tue 08:11:08 PM 48.6667 -60.4000 45° Northeast 520 598 39,000  Level Gander Center
Tue 08:11:31 PM 48.7000 -60.3333 53° Northeast 520 598 39,000  Level Moncton Center
Tue 08:12:31 PM 48.8000 -60.1500 50° Northeast 520 598 39,000  Level Moncton Center
Tue 08:13:31 PM 48.8833 -59.9833 53° Northeast 530 610 39,000  Level Moncton Center
Tue 08:14:31 PM 48.9833 -59.8333 45° Northeast 530 610 39,000  Level Moncton Center
Tue 08:15:31 PM 49.0833 -59.6667 47° Northeast 530 610 39,000  Level Moncton Center
Tue 08:16:08 PM 49.1333 -59.5667 53° Northeast 530 610 39,000  Level Gander Center
Tue 08:17:08 PM 49.2333 -59.3833 50° Northeast 520 598 39,000  Level Gander Center
Tue 08:18:08 PM 49.3333 -59.2000 50° Northeast 520 598 39,000  Level Gander Center
Tue 08:19:08 PM 49.4333 -59.0500 44° Northeast 520 598 39,000  Level Gander Center
Tue 08:20:08 PM 49.5167 -58.8667 55° Northeast 520 598 39,000  Level Gander Center
Tue 08:20:31 PM 49.5333 -58.8000 69° East 520 598 39,000  Level Moncton Center
Tue 08:21:31 PM 49.6333 -58.6333 47° Northeast 520 598 39,000  Level Moncton Center
Tue 08:22:08 PM 49.7000 -58.5167 49° Northeast 520 598 39,000  Level Gander Center
Tue 08:23:08 PM 49.7833 -58.3500 52° Northeast 520 598 39,000  Level Gander Center
Tue 08:23:31 PM 49.8167 -58.3000 44° Northeast 520 598 39,000  Level Moncton Center
Tue 08:24:08 PM 49.8833 -58.1667 52° Northeast 520 598 39,000  Level Gander Center
Tue 08:25:08 PM 49.9667 -58.0000 52° Northeast 520 598 39,000  Level Gander Center
Tue 08:26:08 PM 50.0667 -57.8167 50° Northeast 520 598 39,000  Level Gander Center
Tue 08:27:08 PM 50.1667 -57.6500 47° Northeast 520 598 39,000  Level Gander Center
Tue 08:28:08 PM 50.2333 -57.4833 58° Northeast 510 587 39,000  Level Gander Center
Tue 08:29:08 PM 50.3333 -57.3000 49° Northeast 520 598 39,000  Level Gander Center
Tue 08:29:31 PM 50.3833 -57.2167 47° Northeast 510 587 39,000  Level Moncton Center
Tue 08:30:31 PM 50.4500 -57.0500 58° Northeast 510 587 39,000  Level Moncton Center
Tue 08:31:31 PM 50.5333 -56.8833 52° Northeast 510 587 39,000  Level Moncton Center
Tue 08:32:08 PM 50.6000 -56.7833 44° Northeast 520 598 39,000  Level Gander Center
Tue 08:33:08 PM 50.6833 -56.6167 52° Northeast 510 587 39,000  Level Gander Center
Tue 08:34:08 PM 50.7667 -56.4167 57° Northeast 500 575 39,000  Level Gander Center
Tue 08:35:08 PM 50.8667 -56.2500 46° Northeast 510 587 39,000  Level Gander Center
Tue 08:36:08 PM 50.9500 -56.0500 56° Northeast 510 587 39,000  Level Gander Center
Tue 08:37:08 PM 51.0333 -55.8833 51° Northeast 510 587 39,000  Level Gander Center
Tue 08:38:08 PM 51.1167 -55.7167 51° Northeast 510 587 39,000  Level Gander Center
Tue 08:39:08 PM 51.2167 -55.5167 51° Northeast 510 587 39,000  Level Gander Center
Tue 08:40:08 PM 51.2833 -55.3500 57° Northeast 510 587 39,000  Level Gander Center
Tue 08:40:25 PM 51.3167 -55.2833 51° Northeast 510 587 39,000  Level Gander Center
Tue 08:41:08 PM 51.3833 -55.1667 47° Northeast 510 587 39,000  Level Gander Center
Tue 08:41:25 PM 51.4000 -55.1167 62° Northeast 510 587 39,000  Level Gander Center
Tue 08:42:25 PM 51.4833 -54.9167 56° Northeast 520 598 39,000  Level Gander Center
Tue 08:43:08 PM 51.5500 -54.8000 47° Northeast 510 587 39,000  Level Gander Center
Tue 08:44:08 PM 51.6333 -54.6000 56° Northeast 510 587 39,000  Level Gander Center
Tue 08:44:25 PM 51.6667 -54.5667 32° Northeast 510 587 39,000 -312 Level Gander Center
Tue 08:45:25 PM 51.7333 -54.3667 62° Northeast 510 587 38,600 -524 Descending Gander Center
Tue 08:46:08 PM 51.8000 -54.2500 47° Northeast 510 587 38,100 -350 Descending Gander Center
Tue 08:47:08 PM 51.8833 -54.0667 54° Northeast 510 587 38,000 -50 Descending Gander Center
Tue 08:48:08 PM 51.9667 -53.8667 56° Northeast 510 587 38,000  Level Gander Center
Tue 08:48:25 PM 52.0000 -53.8333 32° Northeast 510 587 38,000  Level Gander Center
Tue 08:49:25 PM 52.0833 -53.6333 56° Northeast 500 575 38,000  Level Gander Center
Tue 08:50:08 PM 52.1333 -53.4833 61° Northeast 500 575 38,000  Level Gander Center
Tue 08:51:08 PM 52.2167 -53.3000 53° Northeast 500 575 38,000  Level Gander Center
Tue 08:51:25 PM 52.2167 -53.2500 90° East 500 575 38,000  Level Gander Center
Tue 08:52:08 PM 52.2667 -53.1000 61° Northeast 500 575 38,000  Level Gander Center
Tue 08:53:08 PM 52.3167 -52.9000 68° East 500 575 38,000  Level Gander Center
Tue 08:53:25 PM 52.3333 -52.8500 61° Northeast 500 575 38,000  Level Gander Center
Tue 08:54:25 PM 52.3833 -52.6167 71° East 510 587 38,000  Level Gander Center
Tue 08:55:25 PM 52.4333 -52.4167 68° East 510 587 38,000  Level Gander Center
Tue 08:56:08 PM 52.4667 -52.2667 70° East 500 575 38,000  Level Gander Center
Tue 08:57:08 PM 52.5167 -52.0333 71° East 510 587 38,000  Level Gander Center
Tue 08:58:08 PM 52.5667 -51.8333 68° East 510 587 38,000  Level Gander Center
Tue 08:59:08 PM 52.6167 -51.6000 70° East 520 598 38,000  Level Gander Center
Tue 09:00:08 PM 52.6500 -51.4000 75° East 510 587 38,000  Level Gander Center
Tue 09:01:08 PM 52.7000 -51.1667 70° East 520 598 38,000  Level Gander Center
Tue 09:02:08 PM 52.7667 -50.9500 63° Northeast 520 598 38,000  Level Gander Center
Tue 09:03:08 PM 52.8167 -50.7167 70° East 530 610 38,000  Level Gander Center
Tue 09:04:08 PM 52.8667 -50.4833 70° East 520 598 38,000  Level Gander Center
Tue 09:05:08 PM 52.8833 -50.2500 83° East 520 598 38,000  Level Gander Center
Tue 09:06:08 PM 52.9500 -50.0333 63° Northeast 520 598 38,000  Level Gander Center
Tue 09:07:08 PM 53.0333 -49.8000 59° Northeast 530 610 38,000 -434 Level Gander Center
Tue 09:09:00 PM 53.1182 -49.4619 67° East  Level FlightAware Approximate
Tue 09:16:00 PM 53.4818 -47.9514 67° East  Level FlightAware Approximate
Tue 09:17:00 PM 53.5322 -47.7336 69° East  Level FlightAware Approximate
Tue 09:18:00 PM 53.5821 -47.5146 69° East  Level FlightAware Approximate
Tue 09:19:00 PM 53.6310 -47.2952 69° East  Level FlightAware Approximate
Tue 09:20:00 PM 53.6795 -47.0754 69° East  Level FlightAware Approximate
Tue 09:21:00 PM 53.7276 -46.8550 70° East  Level FlightAware Approximate
Tue 09:22:00 PM 53.7753 -46.6342 70° East  Level FlightAware Approximate
Tue 09:23:00 PM 53.8226 -46.4128 70° East  Level FlightAware Approximate
Tue 09:24:00 PM 53.8695 -46.1910 70° East  Level FlightAware Approximate
Tue 09:25:00 PM 53.9160 -45.9687 70° East  Level FlightAware Approximate
Tue 09:26:00 PM 53.9620 -45.7458 71° East  Level FlightAware Approximate
Tue 09:27:00 PM 54.0077 -45.5225 71° East  Level FlightAware Approximate
Tue 09:28:00 PM 54.0529 -45.2987 71° East  Level FlightAware Approximate
Tue 09:29:00 PM 54.0977 -45.0743 71° East  Level FlightAware Approximate
Tue 09:30:00 PM 54.1421 -44.8496 71° East  Level FlightAware Approximate
Tue 09:31:00 PM 54.1861 -44.6243 71° East  Level FlightAware Approximate
Tue 09:32:00 PM 54.2296 -44.3985 72° East  Level FlightAware Approximate
Tue 09:33:00 PM 54.2728 -44.1723 72° East  Level FlightAware Approximate
Tue 09:34:00 PM 54.3155 -43.9456 72° East  Level FlightAware Approximate
Tue 09:35:00 PM 54.3591 -43.7192 71° East  Level FlightAware Approximate
Tue 09:36:00 PM 54.4033 -43.4929 71° East  Level FlightAware Approximate
Tue 09:37:00 PM 54.4471 -43.2661 72° East  Level FlightAware Approximate
Tue 09:38:00 PM 54.4905 -43.0388 72° East  Level FlightAware Approximate
Tue 09:39:00 PM 54.5328 -42.8107 73° East  Level FlightAware Approximate
Tue 09:40:00 PM 54.5737 -42.5816 73° East  Level FlightAware Approximate
Tue 09:41:00 PM 54.6142 -42.3521 73° East  Level FlightAware Approximate
Tue 09:42:00 PM 54.6543 -42.1221 73° East  Level FlightAware Approximate
Tue 09:43:00 PM 54.6939 -41.8916 73° East  Level FlightAware Approximate
Tue 09:44:00 PM 54.7331 -41.6607 74° East  Level FlightAware Approximate
Tue 09:45:00 PM 54.7719 -41.4293 74° East  Level FlightAware Approximate
Tue 09:46:00 PM 54.8102 -41.1976 74° East  Level FlightAware Approximate
Tue 09:47:00 PM 54.8480 -40.9653 74° East  Level FlightAware Approximate
Tue 09:48:00 PM 54.8855 -40.7327 74° East  Level FlightAware Approximate
Tue 09:49:00 PM 54.9225 -40.4996 74° East  Level FlightAware Approximate
Tue 09:50:00 PM 54.9590 -40.2660 75° East  Level FlightAware Approximate
Tue 09:51:00 PM 54.9951 -40.0321 75° East  Level FlightAware Approximate
Tue 09:52:00 PM 55.0286 -39.7968 76° East  Level FlightAware Approximate
Tue 09:53:00 PM 55.0614 -39.5610 76° East  Level FlightAware Approximate
Tue 09:54:00 PM 55.0938 -39.3248 76° East  Level FlightAware Approximate
Tue 09:55:00 PM 55.1256 -39.0882 77° East  Level FlightAware Approximate
Tue 09:56:00 PM 55.1570 -38.8513 77° East  Level FlightAware Approximate
Tue 09:57:00 PM 55.1880 -38.6140 77° East  Level FlightAware Approximate
Tue 09:58:00 PM 55.2185 -38.3763 77° East  Level FlightAware Approximate
Tue 09:59:00 PM 55.2485 -38.1382 77° East  Level FlightAware Approximate
Tue 10:00:00 PM 55.2781 -37.8998 78° East  Level FlightAware Approximate
Tue 10:01:00 PM 55.3072 -37.6611 78° East  Level FlightAware Approximate
Tue 10:02:00 PM 55.3358 -37.4220 78° East  Level FlightAware Approximate
Tue 10:03:00 PM 55.3640 -37.1825 78° East  Level FlightAware Approximate
Tue 10:04:00 PM 55.3917 -36.9427 78° East  Level FlightAware Approximate
Tue 10:05:00 PM 55.4189 -36.7026 79° East  Level FlightAware Approximate
Tue 10:06:00 PM 55.4456 -36.4621 79° East  Level FlightAware Approximate
Tue 10:07:00 PM 55.4719 -36.2214 79° East  Level FlightAware Approximate
Tue 10:08:00 PM 55.4977 -35.9803 79° East  Level FlightAware Approximate
Tue 10:09:00 PM 55.5230 -35.7389 79° East  Level FlightAware Approximate
Tue 10:10:00 PM 55.5479 -35.4972 80° East  Level FlightAware Approximate
Tue 10:11:00 PM 55.5723 -35.2551 80° East  Level FlightAware Approximate
Tue 10:12:00 PM 55.5962 -35.0128 80° East  Level FlightAware Approximate
Tue 10:13:00 PM 55.6196 -34.7702 80° East  Level FlightAware Approximate
Tue 10:14:00 PM 55.6426 -34.5273 80° East  Level FlightAware Approximate
Tue 10:15:00 PM 55.6651 -34.2841 81° East  Level FlightAware Approximate
Tue 10:16:00 PM 55.6870 -34.0407 81° East  Level FlightAware Approximate
Tue 10:17:00 PM 55.7085 -33.7970 81° East  Level FlightAware Approximate
Tue 10:18:00 PM 55.7296 -33.5530 81° East  Level FlightAware Approximate
Tue 10:19:00 PM 55.7501 -33.3087 81° East  Level FlightAware Approximate
Tue 10:20:00 PM 55.7701 -33.0642 82° East  Level FlightAware Approximate
Tue 10:21:00 PM 55.7903 -32.8196 81° East  Level FlightAware Approximate
Tue 10:22:00 PM 55.8111 -32.5751 81° East  Level FlightAware Approximate
Tue 10:23:00 PM 55.8315 -32.3303 81° East  Level FlightAware Approximate
Tue 10:24:00 PM 55.8513 -32.0852 82° East  Level FlightAware Approximate
Tue 10:25:00 PM 55.8707 -31.8399 82° East  Level FlightAware Approximate
Tue 10:26:00 PM 55.8896 -31.5944 82° East  Level FlightAware Approximate
Tue 10:27:00 PM 55.9080 -31.3486 82° East  Level FlightAware Approximate
Tue 10:28:00 PM 55.9259 -31.1025 82° East  Level FlightAware Approximate
Tue 10:29:00 PM 55.9434 -30.8563 83° East  Level FlightAware Approximate
Tue 10:30:00 PM 55.9603 -30.6098 83° East  Level FlightAware Approximate
Tue 10:31:00 PM 55.9767 -30.3632 83° East  Level FlightAware Approximate
Tue 10:32:00 PM 55.9927 -30.1163 83° East  Level FlightAware Approximate
Tue 10:33:00 PM 56.0052 -29.8687 86° East  Level FlightAware Approximate
Tue 10:34:00 PM 56.0148 -29.6206 86° East  Level FlightAware Approximate
Tue 10:34:00 PM 56.0650 -28.4700 93° East -1  Level FlightAware Direct Aircraft Datalink
Tue 10:35:00 PM 56.0238 -29.3724 86° East  Level FlightAware Approximate
Tue 10:36:00 PM 56.0324 -29.1241 86° East  Level FlightAware Approximate
Tue 10:37:00 PM 56.0405 -28.8757 87° East  Level FlightAware Approximate
Tue 10:38:00 PM 56.0480 -28.6271 87° East  Level FlightAware Approximate
Tue 10:39:00 PM 56.0550 -28.3785 87° East  Level FlightAware Approximate
Tue 10:40:00 PM 56.0616 -28.1298 87° East  Level FlightAware Approximate
Tue 10:41:00 PM 56.0676 -27.8810 87° East  Level FlightAware Approximate
Tue 10:42:00 PM 56.0732 -27.6321 88° East  Level FlightAware Approximate
Tue 10:43:00 PM 56.0783 -27.3832 88° East  Level FlightAware Approximate
Tue 10:44:00 PM 56.0828 -27.1341 88° East  Level FlightAware Approximate
Tue 10:45:00 PM 56.0868 -26.8851 88° East  Level FlightAware Approximate
Tue 10:46:00 PM 56.0904 -26.6360 88° East  Level FlightAware Approximate
Tue 10:47:00 PM 56.0934 -26.3868 89° East  Level FlightAware Approximate
Tue 10:48:00 PM 56.0960 -26.1376 89° East  Level FlightAware Approximate
Tue 10:49:00 PM 56.0980 -25.8884 89° East  Level FlightAware Approximate
Tue 10:50:00 PM 56.0995 -25.6392 89° East  Level FlightAware Approximate
Tue 10:51:00 PM 56.1006 -25.3899 89° East  Level FlightAware Approximate
Tue 10:52:00 PM 56.1011 -25.1406 90° East  Level FlightAware Approximate
Tue 10:53:00 PM 56.1012 -24.8914 90° East  Level FlightAware Approximate
Tue 10:54:00 PM 56.1007 -24.6421 90° East  Level FlightAware Approximate
Tue 10:55:00 PM 56.0997 -24.3929 90° East  Level FlightAware Approximate
Tue 10:56:00 PM 56.0982 -24.1436 91° East  Level FlightAware Approximate
Tue 10:57:00 PM 56.0963 -23.8944 91° East  Level FlightAware Approximate
Tue 10:58:00 PM 56.0938 -23.6452 91° East  Level FlightAware Approximate
Tue 10:59:00 PM 56.0908 -23.3960 91° East  Level FlightAware Approximate
Tue 11:00:00 PM 56.0873 -23.1469 91° East  Level FlightAware Approximate
Tue 11:01:00 PM 56.0833 -22.8979 92° East  Level FlightAware Approximate
Tue 11:02:00 PM 56.0789 -22.6488 92° East  Level FlightAware Approximate
Tue 11:03:00 PM 56.0739 -22.3999 92° East  Level FlightAware Approximate
Tue 11:04:00 PM 56.0684 -22.1510 92° East  Level FlightAware Approximate
Tue 11:05:00 PM 56.0624 -21.9022 92° East  Level FlightAware Approximate
Tue 11:06:00 PM 56.0559 -21.6535 93° East  Level FlightAware Approximate
Tue 11:07:00 PM 56.0489 -21.4048 93° East  Level FlightAware Approximate
Tue 11:08:00 PM 56.0414 -21.1563 93° East  Level FlightAware Approximate
Tue 11:08:07 PM 55.4636 -20.1020 94° East  Level Estimated
Tue 11:10:00 PM 55.4140 -19.6488 101° East  Level Estimated
Tue 11:11:00 PM 55.3870 -19.4086 101° East  Level Estimated
Tue 11:12:00 PM 55.3595 -19.1688 101° East  Level Estimated
Tue 11:13:00 PM 55.3316 -18.9293 101° East  Level Estimated
Tue 11:14:00 PM 55.3032 -18.6901 102° East  Level Estimated
Tue 11:15:00 PM 55.2743 -18.4513 102° East  Level Estimated
Tue 11:16:00 PM 55.2449 -18.2129 102° East  Level Estimated
Tue 11:17:00 PM 55.2151 -17.9748 102° East  Level Estimated
Tue 11:18:00 PM 55.1849 -17.7370 102° East  Level Estimated
Tue 11:19:00 PM 55.1541 -17.4996 103° East  Level Estimated
Tue 11:20:00 PM 55.1229 -17.2626 103° East  Level Estimated
Tue 11:21:00 PM 55.0913 -17.0259 103° East  Level Estimated
Tue 11:22:00 PM 55.0592 -16.7897 103° East  Level Estimated
Tue 11:23:00 PM 55.0266 -16.5538 103° East  Level Estimated
Tue 11:24:00 PM 54.9936 -16.3183 104° East  Level Estimated
Tue 11:25:00 PM 54.9601 -16.0832 104° East  Level Estimated
Tue 11:26:00 PM 54.9262 -15.8484 104° East  Level Estimated
Tue 11:27:00 PM 54.8918 -15.6141 104° East  Level Estimated
Tue 11:28:00 PM 54.8570 -15.3802 104° East  Level Estimated
Tue 11:29:00 PM 54.8217 -15.1467 105° East  Level Estimated
Tue 11:30:00 PM 54.7860 -14.9136 105° East  Level Estimated
Tue 11:31:00 PM 54.7498 -14.6809 105° East  Level Estimated
Tue 11:31:47 PM 55.4860 -13.4270 105° East 477 549 38,000  Level FlightAware ADS-B
Tue 11:32:00 PM 54.7132 -14.4486 105° East  Level Estimated
Tue 11:32:27 PM 55.4380 -13.2900 122° Southeast 478 550 38,000  Level FlightAware ADS-B
Tue 11:33:12 PM 55.3850 -13.1400 122° Southeast 476 548 38,000  Level FlightAware ADS-B
Tue 11:33:52 PM 55.3370 -13.0050 122° Southeast 474 545 38,000  Level FlightAware ADS-B
Tue 11:34:32 PM 55.2920 -12.8780 122° Southeast 468 539 38,000  Level FlightAware ADS-B
Tue 11:35:17 PM 55.2400 -12.7330 122° Southeast 466 536 38,000  Level FlightAware ADS-B
Tue 11:35:57 PM 55.1940 -12.6050 122° Southeast 469 540 38,000  Level FlightAware ADS-B
Tue 11:36:37 PM 55.1470 -12.4750 122° Southeast 477 549 38,000  Level FlightAware ADS-B
Tue 11:37:22 PM 55.0930 -12.3280 123° Southeast 478 550 38,000  Level FlightAware ADS-B
Tue 11:38:02 PM 55.0460 -12.2000 123° Southeast 475 547 38,000  Level FlightAware ADS-B
Tue 11:38:57 PM 54.9790 -12.0200 123° Southeast 481 554 38,000  Level FlightAware ADS-B
Tue 11:39:42 PM 54.9260 -11.8760 123° Southeast 479 551 38,000  Level FlightAware ADS-B
Tue 11:40:22 PM 54.8820 -11.7580 123° Southeast 478 550 38,000  Level FlightAware ADS-B
Tue 11:41:07 PM 54.8230 -11.6010 123° Southeast 476 548 38,000  Level FlightAware ADS-B
Tue 11:41:47 PM 54.7740 -11.4720 123° Southeast 477 549 38,000  Level FlightAware ADS-B
Tue 11:42:27 PM 54.7260 -11.3450 123° Southeast 475 547 38,000  Level FlightAware ADS-B
Tue 11:43:12 PM 54.6700 -11.1990 124° Southeast 477 549 38,000  Level FlightAware ADS-B
Tue 11:43:52 PM 54.6210 -11.0720 124° Southeast 476 548 38,000  Level FlightAware ADS-B
Tue 11:44:37 PM 54.5660 -10.9280 123° Southeast 472 543 38,000  Level FlightAware ADS-B
Tue 11:45:17 PM 54.5170 -10.8030 124° Southeast 469 540 38,000  Level FlightAware ADS-B
Tue 11:45:52 PM 54.4750 -10.6950 124° Southeast 470 541 38,000  Level FlightAware ADS-B
Tue 11:47:02 PM 54.3930 -10.4870 124° Southeast 471 542 38,000  Level FlightAware ADS-B
Tue 11:48:02 PM 54.3210 -10.3040 124° Southeast 470 541 38,000  Level FlightAware ADS-B
Tue 11:50:00 PM 54.2173 -9.8708 112° Southeast  Level FlightAware Approximate
Tue 11:50:22 PM 54.1470 -9.8700 112° Southeast 468 539 38,000  Level FlightAware ADS-B
Tue 11:51:07 PM 54.0910 -9.7320 125° Southeast 469 540 38,000  Level FlightAware ADS-B
Tue 11:51:47 PM 54.0410 -9.6090 125° Southeast 476 548 38,000  Level FlightAware ADS-B
Tue 11:53:07 PM 53.9410 -9.3650 125° Southeast 473 544 38,000  Level FlightAware ADS-B
Tue 11:54:07 PM 53.8650 -9.1830 125° Southeast 472 543 38,000  Level FlightAware ADS-B
Tue 11:54:42 PM 53.8160 -9.0640 125° Southeast 472 543 38,000 -1,525 Level FlightAware ADS-B
Tue 11:55:06 PM 53.7839 -8.9875 125° Southeast 432 497 36,500 -2,143 Descending FlightAware UK
Tue 11:55:24 PM 53.7613 -8.9336 125° Southeast 432 497 36,500 2,903 Level FlightAware UK
Tue 11:55:37 PM 53.7530 -8.9140 125° Southeast 472 543 38,000  Climbing FlightAware ADS-B
Tue 11:55:54 PM 53.7236 -8.8436 125° Southeast 432 497 36,500 -2,571 Descending FlightAware UK
Tue 11:56:12 PM 53.7011 -8.7899 125° Southeast 432 497 36,500 3,913 Level FlightAware UK
Tue 11:56:17 PM 53.7010 -8.7920 125° Southeast 468 539 38,000  Climbing FlightAware ADS-B
Tue 11:56:36 PM 53.6709 -8.7187 125° Southeast 432 497 36,500 -2,432 Descending FlightAware UK
Tue 11:56:54 PM 53.6483 -8.6655 126° Southeast 432 497 36,500 4,286 Level FlightAware UK
Tue 11:56:57 PM 53.6530 -8.6760 126° Southeast 469 540 38,000  Climbing FlightAware ADS-B
Tue 11:57:12 PM 53.6254 -8.6117 126° Southeast 432 497 36,500 -2,727 Descending FlightAware UK
Tue 11:57:30 PM 53.6030 -8.5590 126° Southeast 432 497 36,500 3,000 Level FlightAware UK
Tue 11:57:42 PM 53.5940 -8.5380 126° Southeast 471 542 38,000  Climbing FlightAware ADS-B
Tue 11:58:00 PM 53.5646 -8.4698 126° Southeast 430 495 36,500 -2,500 Descending FlightAware UK
Tue 11:58:18 PM 53.5418 -8.4166 126° Southeast 434 499 36,500 4,091 Level FlightAware UK
Tue 11:58:22 PM 53.5430 -8.4190 126° Southeast 472 543 38,000  Climbing FlightAware ADS-B
Tue 11:58:42 PM 53.5114 -8.3454 126° Southeast 432 497 36,500 -2,368 Descending FlightAware UK
Tue 11:59:00 PM 53.4885 -8.2922 126° Southeast 432 497 36,500 4,500 Level FlightAware UK
Tue 11:59:02 PM 53.4930 -8.3020 126° Southeast 472 543 38,000  Climbing FlightAware ADS-B
Tue 11:59:18 PM 53.4655 -8.2389 126° Southeast 434 499 36,500 -2,647 Descending FlightAware UK
Tue 11:59:36 PM 53.4424 -8.1857 126° Southeast 434 499 36,500 3,103 Level FlightAware UK
Tue 11:59:47 PM 53.4340 -8.1660 126° Southeast 470 541 38,000  Climbing FlightAware ADS-B
Wed 12:00:06 AM 53.4038 -8.0967 126° Southeast 436 502 36,500 -2,432 Descending FlightAware UK
Wed 12:00:24 AM 53.3803 -8.0429 126° Southeast 438 504 36,500 4,286 Level FlightAware UK
Wed 12:00:27 AM 53.3810 -8.0450 126° Southeast 476 548 38,000  Climbing FlightAware ADS-B
Wed 12:00:42 AM 53.3565 -7.9882 126° Southeast 440 506 36,500 -2,727 Descending FlightAware UK
Wed 12:01:00 AM 53.3328 -7.9336 126° Southeast 438 504 36,500 3,000 Level FlightAware UK
Wed 12:01:12 AM 53.3220 -7.9080 126° Southeast 479 551 38,000  Climbing FlightAware ADS-B
Wed 12:01:30 AM 53.2934 -7.8431 126° Southeast 438 504 36,500 -2,500 Descending FlightAware UK
Wed 12:01:48 AM 53.2692 -7.7882 126° Southeast 440 506 36,500 4,091 Level FlightAware UK
Wed 12:01:52 AM 53.2700 -7.7890 126° Southeast 478 550 38,000  Climbing FlightAware ADS-B
Wed 12:02:12 AM 53.2378 -7.7169 126° Southeast 440 506 36,500 -2,368 Descending FlightAware UK
Wed 12:02:30 AM 53.2139 -7.6626 126° Southeast 438 504 36,500 4,500 Level FlightAware UK
Wed 12:02:32 AM 53.2170 -7.6690 126° Southeast 475 547 38,000  Climbing FlightAware ADS-B
Wed 12:02:48 AM 53.1906 -7.6098 126° Southeast 436 502 36,500 -2,647 Descending FlightAware UK
Wed 12:03:06 AM 53.1669 -7.5563 126° Southeast 438 504 36,500 3,103 Level FlightAware UK
Wed 12:03:17 AM 53.1600 -7.5410 126° Southeast 476 548 38,000  Climbing FlightAware ADS-B
Wed 12:03:36 AM 53.1271 -7.4665 126° Southeast 438 504 36,500 -2,432 Descending FlightAware UK
Wed 12:03:54 AM 53.1035 -7.4130 126° Southeast 438 504 36,500 4,286 Level FlightAware UK
Wed 12:03:57 AM 53.1050 -7.4170 126° Southeast 481 554 38,000  Climbing FlightAware ADS-B
Wed 12:04:12 AM 53.0797 -7.3596 126° Southeast 438 504 36,500 -2,727 Descending FlightAware UK
Wed 12:04:30 AM 53.0558 -7.3063 127° Southeast 436 502 36,500 3,000 Level FlightAware UK
Wed 12:04:42 AM 53.0470 -7.2870 127° Southeast 483 556 38,000  Climbing FlightAware ADS-B
Wed 12:05:00 AM 53.0158 -7.2174 127° Southeast 438 504 36,500 -2,500 Descending FlightAware UK
Wed 12:05:18 AM 52.9918 -7.1639 127° Southeast 440 506 36,500 4,091 Level FlightAware UK
Wed 12:05:22 AM 52.9920 -7.1640 127° Southeast 485 558 38,000  Climbing FlightAware ADS-B
Wed 12:05:42 AM 52.9594 -7.0920 127° Southeast 438 504 36,500 -2,368 Descending FlightAware UK
Wed 12:06:00 AM 52.9356 -7.0392 127° Southeast 440 506 36,500 3,600 Level FlightAware UK
Wed 12:06:07 AM 52.9320 -7.0310 127° Southeast 484 557 38,000  Climbing FlightAware ADS-B
Wed 12:06:24 AM 52.9032 -6.9674 127° Southeast 438 504 36,500 -2,571 Descending FlightAware UK
Wed 12:06:42 AM 52.8789 -6.9142 127° Southeast 438 504 36,500 3,913 Level FlightAware UK
Wed 12:06:47 AM 52.8790 -6.9150 127° Southeast 484 557 38,000  Climbing FlightAware ADS-B
Wed 12:07:06 AM 52.8466 -6.8434 127° Southeast 438 504 36,500 -2,432 Descending FlightAware UK
Wed 12:07:24 AM 52.8223 -6.7904 127° Southeast 438 504 36,500 4,286 Level FlightAware UK
Wed 12:07:27 AM 52.8250 -6.7960 127° Southeast 485 558 38,000  Climbing FlightAware ADS-B
Wed 12:07:42 AM 52.7980 -6.7372 127° Southeast 440 506 36,500 -2,727 Descending FlightAware UK
Wed 12:08:00 AM 52.7737 -6.6841 127° Southeast 438 504 36,500 3,000 Level FlightAware UK
Wed 12:08:12 AM 52.7630 -6.6610 127° Southeast 484 557 38,000  Climbing FlightAware ADS-B
Wed 12:08:30 AM 52.7331 -6.5959 127° Southeast 438 504 36,500 -2,500 Descending FlightAware UK
Wed 12:08:48 AM 52.7088 -6.5431 127° Southeast 438 504 36,500 4,091 Level FlightAware UK
Wed 12:08:52 AM 52.7100 -6.5450 127° Southeast 484 557 38,000  Climbing FlightAware ADS-B
Wed 12:09:12 AM 52.6763 -6.4728 127° Southeast 436 502 36,500 -2,368 Descending FlightAware UK
Wed 12:09:30 AM 52.6518 -6.4202 127° Southeast 438 504 36,500 4,500 Level FlightAware UK
Wed 12:09:32 AM 52.6550 -6.4270 127° Southeast 481 554 38,000  Climbing FlightAware ADS-B
Wed 12:09:48 AM 52.6271 -6.3669 127° Southeast 440 506 36,500 -2,647 Descending FlightAware UK
Wed 12:10:06 AM 52.6025 -6.3141 127° Southeast 438 504 36,500 3,103 Level FlightAware UK
Wed 12:10:17 AM 52.5940 -6.2960 127° Southeast 482 555 38,000  Climbing FlightAware ADS-B
Wed 12:10:36 AM 52.5615 -6.2263 127° Southeast 438 504 36,500 -2,432 Descending FlightAware UK
Wed 12:10:54 AM 52.5368 -6.1736 128° Southeast 440 506 36,500 4,286 Level FlightAware UK
Wed 12:10:57 AM 52.5420 -6.1840 128° Southeast 482 555 38,000  Climbing FlightAware ADS-B
Wed 12:11:12 AM 52.5124 -6.1205 128° Southeast 438 504 36,500 -2,647 Descending FlightAware UK
Wed 12:11:31 AM 52.4950 -6.0578 114° Southeast 436 502 36,500 3,000 Level FlightAware UK
Wed 12:11:42 AM 52.4880 -6.0280 114° Southeast 501 577 38,000  Climbing FlightAware ADS-B
Wed 12:12:01 AM 52.4711 -5.9502 114° Southeast 438 504 36,500 -2,432 Descending FlightAware UK
Wed 12:12:19 AM 52.4567 -5.8857 110° East 438 504 36,500 4,286 Level FlightAware UK
Wed 12:12:22 AM 52.4570 -5.8860 110° East 506 582 38,000  Climbing FlightAware ADS-B
Wed 12:12:37 AM 52.4420 -5.8211 110° East 440 506 36,500 -2,727 Descending FlightAware UK
Wed 12:12:55 AM 52.4273 -5.7566 110° East 438 504 36,500 3,000 Level FlightAware UK
Wed 12:13:07 AM 52.4270 -5.7540 110° East 506 582 38,000  Climbing FlightAware ADS-B
Wed 12:13:25 AM 52.4026 -5.6484 110° East 438 504 36,500 -2,500 Descending FlightAware UK
Wed 12:13:43 AM 52.3882 -5.5846 110° East 440 506 36,500 4,091 Level FlightAware UK
Wed 12:13:47 AM 52.3860 -5.5760 110° East 506 582 38,000  Climbing FlightAware ADS-B
Wed 12:14:07 AM 52.3682 -5.4981 110° East 440 506 36,500 -2,368 Descending FlightAware UK
Wed 12:14:25 AM 52.3535 -5.4347 111° Southeast 440 506 36,500 4,500 Level FlightAware UK
Wed 12:14:27 AM 52.3530 -5.4330 111° Southeast 502 578 38,000  Climbing FlightAware ADS-B
Wed 12:14:43 AM 52.3385 -5.3702 111° Southeast 438 504 36,500 -2,647 Descending FlightAware UK
Wed 12:15:01 AM 52.3238 -5.3069 111° Southeast 434 499 36,500 3,103 Level FlightAware UK
Wed 12:15:12 AM 52.3170 -5.2780 111° Southeast 499 574 38,000  Climbing FlightAware ADS-B
Wed 12:15:31 AM 52.2994 -5.2019 111° Southeast 436 502 36,500 -2,432 Descending FlightAware UK
Wed 12:15:49 AM 52.2845 -5.1385 111° Southeast 438 504 36,500 4,286 Level FlightAware UK
Wed 12:15:52 AM 52.2840 -5.1370 111° Southeast 503 579 38,000  Climbing FlightAware ADS-B
Wed 12:16:07 AM 52.2695 -5.0740 111° Southeast 440 506 36,500 -2,727 Descending FlightAware UK
Wed 12:16:25 AM 52.2547 -5.0110 111° Southeast 438 504 36,500 3,000 Level FlightAware UK
Wed 12:16:37 AM 52.2470 -4.9790 111° Southeast 502 578 38,000  Climbing FlightAware ADS-B
Wed 12:16:55 AM 52.2297 -4.9052 111° Southeast 438 504 36,500 -2,500 Descending FlightAware UK
Wed 12:17:13 AM 52.2147 -4.8418 111° Southeast 438 504 36,500 4,091 Level FlightAware UK
Wed 12:17:17 AM 52.2130 -4.8340 111° Southeast 502 578 38,000  Climbing FlightAware ADS-B
Wed 12:17:37 AM 52.1941 -4.7562 111° Southeast 438 504 36,500 -2,368 Descending FlightAware UK
Wed 12:17:55 AM 52.1790 -4.6930 111° Southeast 436 502 36,500 4,500 Level FlightAware UK
Wed 12:17:57 AM 52.1820 -4.7050 111° Southeast 501 577 38,000  Climbing FlightAware ADS-B
Wed 12:18:13 AM 52.1638 -4.6300 111° Southeast 436 502 36,500 -2,647 Descending FlightAware UK
Wed 12:18:31 AM 52.1489 -4.5677 111° Southeast 436 502 36,500 3,103 Level FlightAware UK
Wed 12:18:42 AM 52.1420 -4.5410 111° Southeast 502 578 38,000  Climbing FlightAware ADS-B
Wed 12:19:01 AM 52.1234 -4.4625 111° Southeast 438 504 36,500 -2,432 Descending FlightAware UK
Wed 12:19:19 AM 52.1080 -4.3994 112° Southeast 438 504 36,500 4,286 Level FlightAware UK
Wed 12:19:22 AM 52.1080 -4.3990 112° Southeast 504 580 38,000  Climbing FlightAware ADS-B
Wed 12:19:37 AM 52.0926 -4.3362 112° Southeast 440 506 36,500 -2,727 Descending FlightAware UK
Wed 12:19:55 AM 52.0772 -4.2728 112° Southeast 440 506 36,500 2,800 Level FlightAware UK
Wed 12:20:07 AM 52.0700 -4.2360 112° Southeast 505 581 37,900 3,130 Climbing FlightAware ADS-B
Wed 12:20:18 AM 52.0618 -4.1927 107° East 503 579 37,700 -5,200 Descending FlightAware ADS-B
Wed 12:20:37 AM 52.0491 -4.1198 107° East 442 509 35,300 -2,250 Descending FlightAware UK
Wed 12:20:50 AM 52.0415 -4.0751 107° East 506 582 36,500 -1,800 Climbing FlightAware ADS-B
Wed 12:21:07 AM 52.0302 -4.0104 107° East 438 504 34,400 -4,286 Descending FlightAware UK
Wed 12:21:25 AM 52.0185 -3.9472 107° East 438 504 34,000 3,300 Descending FlightAware UK
Wed 12:21:27 AM 52.0180 -3.9460 107° East 494 568 35,500 -1,667 Climbing FlightAware ADS-B
Wed 12:21:43 AM 52.0064 -3.8831 107° East 434 499 33,500 -4,412 Descending FlightAware UK
Wed 12:22:01 AM 51.9948 -3.8212 107° East 430 495 33,000 1,655 Descending FlightAware UK
Wed 12:22:12 AM 51.9880 -3.7846 107° East 480 552 34,300 -1,600 Climbing FlightAware ADS-B
Wed 12:22:31 AM 51.9754 -3.7179 107° East 420 483 32,200 -1,636 Descending FlightAware UK
Wed 12:22:45 AM 51.9668 -3.6730 107° East 473 544 33,400 -1,400 Climbing FlightAware ADS-B
Wed 12:23:01 AM 51.9563 -3.6178 107° East 410 472 31,500 -1,548 Descending FlightAware UK
Wed 12:23:16 AM 51.9472 -3.5704 107° East 467 537 32,600 -1,800 Climbing FlightAware ADS-B
Wed 12:23:31 AM 51.9370 -3.5174 107° East 408 470 30,600 -1,455 Descending FlightAware UK
Wed 12:23:49 AM 51.9266 -3.4634 107° East 462 532 31,800 -1,500 Climbing FlightAware ADS-B
Wed 12:24:07 AM 51.9139 -3.3980 107° East 402 463 29,700 -1,688 Descending FlightAware UK
Wed 12:24:21 AM 51.9060 -3.3570 107° East 455 524 30,900 -1,400 Climbing FlightAware ADS-B
Wed 12:24:37 AM 51.8953 -3.3022 107° East 396 456 29,000 -1,355 Descending FlightAware UK
Wed 12:24:52 AM 51.8867 -3.2574 107° East 447 514 30,200 -2,000 Climbing FlightAware ADS-B
Wed 12:25:07 AM 51.8767 -3.2067 107° East 394 453 28,000 -2,400 Descending FlightAware UK
Wed 12:25:22 AM 51.8676 -3.1595 107° East 449 517 29,000 -2,000 Climbing FlightAware ADS-B
Wed 12:25:37 AM 51.8579 -3.1106 107° East 400 460 27,000 -1,548 Descending FlightAware UK
Wed 12:25:53 AM 51.8486 -3.0624 107° East 448 516 28,200 -1,548 Climbing FlightAware ADS-B
Wed 12:26:08 AM 51.8392 -3.0144 107° East 400 460 26,200 -1,636 Descending FlightAware UK
Wed 12:26:26 AM 51.8282 -2.9576 107° East 448 516 27,300 -1,543 Climbing FlightAware ADS-B
Wed 12:26:43 AM 51.8170 -2.9003 107° East 402 463 25,300 -1,600 Descending FlightAware UK
Wed 12:26:56 AM 51.8093 -2.8608 107° East 445 512 26,500 -1,548 Climbing FlightAware ADS-B
Wed 12:27:14 AM 51.7982 -2.8045 107° East 396 456 24,500 -1,548 Descending FlightAware UK
Wed 12:27:27 AM 51.7908 -2.7663 107° East 434 499 25,700 -1,400 Climbing FlightAware ADS-B
Wed 12:27:44 AM 51.7802 -2.7130 107° East 388 447 23,800 -1,355 Descending FlightAware UK
Wed 12:27:58 AM 51.7721 -2.6721 107° East 426 490 25,000 -1,600 Climbing FlightAware ADS-B
Wed 12:28:14 AM 51.7622 -2.6226 107° East 382 440 23,000 -1,600 Descending FlightAware UK
Wed 12:28:28 AM 51.7537 -2.5792 107° East 417 480 24,200 -1,400 Climbing FlightAware ADS-B
Wed 12:28:44 AM 51.7446 -2.5339 107° East 378 435 22,300 -1,355 Descending FlightAware UK
Wed 12:28:59 AM 51.7361 -2.4914 107° East 409 471 23,500 -1,600 Climbing FlightAware ADS-B
Wed 12:29:14 AM 51.7273 -2.4471 107° East 370 426 21,500 -1,742 Descending FlightAware UK
Wed 12:29:30 AM 51.7180 -2.4010 107° East 401 461 22,600 -1,500 Climbing FlightAware ADS-B
Wed 12:29:50 AM 51.7066 -2.3451 107° East 368 423 20,600 -1,313 Descending FlightAware UK
Wed 12:30:02 AM 51.7002 -2.3130 107° East 393 452 21,900 -1,400 Climbing FlightAware ADS-B
Wed 12:30:20 AM 51.6896 -2.2613 107° East 362 417 19,900 -1,600 Descending FlightAware UK
Wed 12:30:32 AM 51.6833 -2.2296 107° East 387 445 21,100 -1,600 Climbing FlightAware ADS-B
Wed 12:30:50 AM 51.6731 -2.1798 107° East 354 407 19,100 -1,400 Descending FlightAware UK
Wed 12:31:02 AM 51.6664 -2.1466 107° East 379 436 20,400 -1,400 Climbing FlightAware ADS-B
Wed 12:31:20 AM 51.6568 -2.0997 107° East 348 400 18,400 -1,355 Descending FlightAware UK
Wed 12:31:33 AM 51.6503 -2.0676 107° East 372 428 19,700 -1,400 Climbing FlightAware ADS-B
Wed 12:31:50 AM 51.6408 -2.0213 107° East 344 396 17,700 -1,600 Descending FlightAware UK
Wed 12:32:03 AM 51.6342 -1.9890 107° East 365 420 18,900 -1,400 Climbing FlightAware ADS-B
Wed 12:32:20 AM 51.6250 -1.9442 107° East 336 387 17,000 -1,400 Descending FlightAware UK
Wed 12:32:33 AM 51.6181 -1.9109 107° East 359 413 18,200 -1,400 Climbing FlightAware ADS-B
Wed 12:32:50 AM 51.6092 -1.8681 107° East 330 380 16,300 -1,400 Descending FlightAware UK
Wed 12:33:03 AM 51.6026 -1.8355 107° East 354 407 17,500 -1,400 Climbing FlightAware ADS-B
Wed 12:33:20 AM 51.5938 -1.7938 107° East 326 375 15,600 -1,355 Descending FlightAware UK
Wed 12:33:34 AM 51.5871 -1.7611 107° East 349 402 16,800 -1,600 Climbing FlightAware ADS-B
Wed 12:33:50 AM 51.5785 -1.7199 107° East 324 373 14,800 -1,400 Descending FlightAware UK
Wed 12:34:04 AM 51.5716 -1.6869 107° East 344 396 16,100 -1,400 Climbing FlightAware ADS-B
Wed 12:34:20 AM 51.5634 -1.6476 107° East 320 368 14,100 -1,548 Descending FlightAware UK
Wed 12:34:35 AM 51.5561 -1.6126 107° East 340 391 15,300 -1,200 Climbing FlightAware ADS-B
Wed 12:34:50 AM 51.5484 -1.5759 107° East 314 361 13,500 -1,200 Descending FlightAware UK
Wed 12:35:05 AM 51.5411 -1.5409 107° East 335 386 14,700 -1,400 Climbing FlightAware ADS-B
Wed 12:35:20 AM 51.5335 -1.5049 107° East 308 354 12,800 -1,355 Descending FlightAware UK
Wed 12:35:36 AM 51.5262 -1.4699 107° East 335 386 14,000 -1,333 Climbing FlightAware ADS-B
Wed 12:35:56 AM 51.5159 -1.4209 107° East 316 364 12,000 -1,355 Descending FlightAware UK
Wed 12:36:07 AM 51.5108 -1.3971 107° East 326 375 13,300 -1,200 Climbing FlightAware ADS-B
Wed 12:36:26 AM 51.5013 -1.3523 107° East 308 354 11,400 -1,250 Descending FlightAware UK
Wed 12:36:31 AM 51.4992 -1.3425 107° East 321 369 12,800 -1,250 Climbing FlightAware ADS-B
Wed 12:36:50 AM 51.4901 -1.2990 107° East 304 350 10,900 -1,200 Descending FlightAware UK
Wed 12:37:01 AM 51.4849 -1.2752 107° East 315 362 12,200 -1,200 Climbing FlightAware ADS-B
Wed 12:37:20 AM 51.4758 -1.2328 107° East 298 343 10,300 -774 Descending FlightAware UK
Wed 12:37:32 AM 51.4709 -1.2093 107° East 307 353 11,800 -600 Climbing FlightAware ADS-B
Wed 12:37:50 AM 51.4623 -1.1689 107° East 280 322 10,000 -600 Descending FlightAware UK
Wed 12:38:02 AM 51.4574 -1.1463 107° East 291 335 11,500 -400 Climbing FlightAware ADS-B
Wed 12:38:20 AM 51.4494 -1.1086 107° East 262 302 9,800 -600 Descending FlightAware UK
Wed 12:38:32 AM 51.4445 -1.0863 107° East 273 314 11,200 -581 Climbing FlightAware ADS-B
Wed 12:38:51 AM 51.4370 -1.0512 107° East 246 283 9,500 -387 Descending FlightAware UK
Wed 12:39:03 AM 51.4321 -1.0287 107° East 267 307 11,000  Climbing FlightAware ADS-B
Wed 12:39:21 AM 51.4251 -0.9956 107° East 246 283 9,500  Descending FlightAware UK
Wed 12:39:35 AM 51.4196 -0.9704 107° East 267 307 11,000  Climbing FlightAware ADS-B
Wed 12:39:50 AM 51.4131 -0.9400 107° East 246 283 9,500  Descending FlightAware UK
Wed 12:40:06 AM 51.4068 -0.9116 107° East 267 307 11,000  Climbing FlightAware ADS-B
Wed 12:40:26 AM 51.3987 -0.8735 107° East 248 285 9,500  Descending FlightAware UK
Wed 12:40:37 AM 51.3947 -0.8560 107° East 269 310 11,000  Climbing FlightAware ADS-B
Wed 12:40:56 AM 51.3863 -0.8169 107° East 246 283 9,500 -194 Descending FlightAware UK
Wed 12:41:08 AM 51.3818 -0.7967 107° East 267 307 10,900 -600 Climbing FlightAware ADS-B
Wed 12:41:26 AM 51.3741 -0.7608 107° East 244 281 9,200 -400 Descending FlightAware UK
Wed 12:41:38 AM 51.3695 -0.7401 107° East 267 307 10,700 -581 Climbing FlightAware ADS-B
Wed 12:41:57 AM 51.3618 -0.7047 107° East 244 281 8,900 -600 Descending FlightAware UK
Wed 12:42:08 AM 51.3572 -0.6843 107° East 266 306 10,400 -400 Climbing FlightAware ADS-B
Wed 12:42:27 AM 51.3496 -0.6491 107° East 242 278 8,700 -387 Descending FlightAware UK
Wed 12:42:39 AM 51.3448 -0.6276 107° East 267 307 10,200 -400 Climbing FlightAware ADS-B
Wed 12:42:57 AM 51.3374 -0.5935 107° East 240 276 8,500 -400 Descending FlightAware UK
Wed 12:43:09 AM 51.3326 -0.5717 107° East 268 308 10,000  Climbing FlightAware ADS-B
Wed 12:43:26 AM 51.3253 -0.5381 107° East 242 278 8,500  Descending FlightAware UK
Wed 12:43:39 AM 51.3199 -0.5146 107° East 269 310 10,000  Climbing FlightAware ADS-B
Wed 12:43:56 AM 51.3128 -0.4820 107° East 242 278 8,500  Descending FlightAware UK
Wed 12:44:09 AM 51.3075 -0.4586 107° East 267 307 10,000 3,103 Climbing FlightAware ADS-B
Wed 12:44:25 AM 51.3011 -0.4298 110° East 267 307 10,000  Level FlightAware ADS-B
Wed 12:44:35 AM 51.2961 -0.4119 114° Southeast 266 306 10,000  Level FlightAware ADS-B
Wed 12:44:41 AM 51.2928 -0.4023 119° Southeast 266 306 10,000 -4,091 Level FlightAware ADS-B
Wed 12:44:57 AM 51.2826 -0.3738 119° Southeast 242 278 8,500  Descending FlightAware UK
Wed 12:45:11 AM 51.2740 -0.3514 119° Southeast 266 306 10,000  Climbing FlightAware ADS-B
Wed 12:45:27 AM 51.2636 -0.3236 119° Southeast 240 276 8,500  Descending FlightAware UK
Wed 12:45:33 AM 51.2598 -0.3129 119° Southeast 266 306 10,000 8,182 Climbing FlightAware ADS-B
Wed 12:45:38 AM 51.2569 -0.3060 124° Southeast 265 305 10,000  Level FlightAware ADS-B
Wed 12:45:41 AM 51.2542 -0.3009 130° Southeast 264 304 10,000  Level FlightAware ADS-B
Wed 12:45:45 AM 51.2512 -0.2964 137° Southeast 263 303 10,000  Level FlightAware ADS-B
Wed 12:45:48 AM 51.2472 -0.2917 144° Southeast 261 300 10,000  Level FlightAware ADS-B
Wed 12:45:52 AM 51.2438 -0.2888 151° Southeast 260 299 10,000  Level FlightAware ADS-B
Wed 12:45:55 AM 51.2401 -0.2863 158° South 256 295 10,000  Level FlightAware ADS-B
Wed 12:46:01 AM 51.2335 -0.2837 166° South 252 290 10,000  Level FlightAware ADS-B
Wed 12:46:04 AM 51.2301 -0.2832 174° South 248 285 10,000  Level FlightAware ADS-B
Wed 12:46:07 AM 51.2267 -0.2831 179° South 246 283 10,000  Level FlightAware ADS-B
Wed 12:46:11 AM 51.2222 -0.2839 186° South 243 280 10,000  Level FlightAware ADS-B
Wed 12:46:17 AM 51.2156 -0.2865 194° South 240 276 10,000  Level FlightAware ADS-B
Wed 12:46:22 AM 51.2112 -0.2894 203° Southwest 237 273 10,000  Level FlightAware ADS-B
Wed 12:46:26 AM 51.2064 -0.2940 211° Southwest 235 270 10,000  Level FlightAware ADS-B
Wed 12:46:32 AM 51.2015 -0.3004 220° Southwest 231 266 10,000  Level FlightAware ADS-B
Wed 12:46:36 AM 51.1992 -0.3044 227° Southwest 231 266 10,000  Level FlightAware ADS-B
Wed 12:46:39 AM 51.1972 -0.3087 233° Southwest 229 264 10,000  Level FlightAware ADS-B
Wed 12:46:42 AM 51.1952 -0.3140 239° Southwest 228 262 10,000  Level FlightAware ADS-B
Wed 12:46:46 AM 51.1937 -0.3187 243° Southwest 226 260 10,000  Level FlightAware ADS-B
Wed 12:46:49 AM 51.1923 -0.3242 248° West 225 259 10,000  Level FlightAware ADS-B
Wed 12:46:56 AM 51.1909 -0.3345 258° West 222 255 10,000  Level FlightAware ADS-B
Wed 12:46:59 AM 51.1907 -0.3394 266° West 221 254 10,000  Level FlightAware ADS-B
Wed 12:47:03 AM 51.1907 -0.3452 270° West 219 252 10,000  Level FlightAware ADS-B
Wed 12:47:06 AM 51.1911 -0.3510 276° West 218 251 10,000  Level FlightAware ADS-B
Wed 12:47:12 AM 51.1925 -0.3603 283° West 218 251 10,000  Level FlightAware ADS-B
Wed 12:47:15 AM 51.1937 -0.3654 291° West 217 250 10,000  Level FlightAware ADS-B
Wed 12:47:19 AM 51.1951 -0.3700 296° West 217 250 10,000  Level FlightAware ADS-B
Wed 12:47:22 AM 51.1968 -0.3747 300° West 216 249 10,000  Level FlightAware ADS-B
Wed 12:47:25 AM 51.1986 -0.3785 307° West 217 250 10,000  Level FlightAware ADS-B
Wed 12:47:31 AM 51.2026 -0.3855 312° West 217 250 10,000  Level FlightAware ADS-B
Wed 12:47:34 AM 51.2051 -0.3888 321° Northwest 217 250 10,000  Level FlightAware ADS-B
Wed 12:47:38 AM 51.2078 -0.3918 325° Northwest 219 252 10,000  Level FlightAware ADS-B
Wed 12:47:44 AM 51.2139 -0.3968 333° Northwest 221 254 10,000  Level FlightAware ADS-B
Wed 12:47:49 AM 51.2188 -0.3993 343° North 224 258 10,000  Level FlightAware ADS-B
Wed 12:47:54 AM 51.2238 -0.4007 350° North 226 260 10,000  Level FlightAware ADS-B
Wed 12:47:58 AM 51.2270 -0.4011 356° North 228 262 10,000  Level FlightAware ADS-B
Wed 12:48:01 AM 51.2313 -0.4010 North 229 264 10,000 -545 Level FlightAware ADS-B
Wed 12:48:09 AM 51.2398 -0.4007 North 229 264 9,900 -462 Descending FlightAware ADS-B
Wed 12:48:14 AM 51.2439 -0.4012 356° North 226 260 9,900  Level FlightAware ADS-B
Wed 12:48:19 AM 51.2499 -0.4027 351° North 223 257 9,900 -750 Level FlightAware ADS-B
Wed 12:48:22 AM 51.2534 -0.4041 346° North 222 255 9,800 -857 Descending FlightAware ADS-B
Wed 12:48:26 AM 51.2565 -0.4055 344° North 221 254 9,800  Level FlightAware ADS-B
Wed 12:48:31 AM 51.2616 -0.4083 341° North 219 252 9,800 -545 Level FlightAware ADS-B
Wed 12:48:37 AM 51.2673 -0.4122 337° Northwest 218 251 9,700 -545 Descending FlightAware ADS-B
Wed 12:48:42 AM 51.2720 -0.4157 335° Northwest 217 250 9,700 -400 Level FlightAware ADS-B
Wed 12:48:52 AM 51.2801 -0.4225 332° Northwest 216 249 9,600 -522 Descending FlightAware ADS-B
Wed 12:49:05 AM 51.2917 -0.4331 330° Northwest 215 247 9,500 -444 Descending FlightAware ADS-B
Wed 12:49:19 AM 51.3039 -0.4449 329° Northwest 215 247 9,400 -480 Descending FlightAware ADS-B
Wed 12:49:30 AM 51.3130 -0.4539 328° Northwest 214 246 9,300 -800 Descending FlightAware ADS-B
Wed 12:49:34 AM 51.3157 -0.4562 332° Northwest 215 247 9,200 -750 Descending FlightAware ADS-B
Wed 12:49:38 AM 51.3204 -0.4593 337° Northwest 218 251 9,200  Level FlightAware ADS-B
Wed 12:49:41 AM 51.3233 -0.4607 343° North 219 252 9,200 -750 Level FlightAware ADS-B
Wed 12:49:46 AM 51.3276 -0.4620 349° North 223 257 9,100 -600 Descending FlightAware ADS-B
Wed 12:49:51 AM 51.3340 -0.4626 357° North 227 261 9,100  Level FlightAware ADS-B
Wed 12:49:55 AM 51.3377 -0.4621 North 230 265 9,100 -750 Level FlightAware ADS-B
Wed 12:49:59 AM 51.3417 -0.4609 11° North 232 267 9,000 -857 Descending FlightAware ADS-B
Wed 12:50:02 AM 51.3452 -0.4590 18° North 234 269 9,000  Level FlightAware ADS-B
Wed 12:50:06 AM 51.3483 -0.4570 23° Northeast 237 273 9,000  Level FlightAware ADS-B
Wed 12:50:09 AM 51.3523 -0.4534 29° Northeast 239 275 9,000  Level FlightAware ADS-B
Wed 12:50:13 AM 51.3555 -0.4498 36° Northeast 241 277 9,000  Level FlightAware ADS-B
Wed 12:50:17 AM 51.3588 -0.4449 43° Northeast 244 281 9,000  Level FlightAware ADS-B
Wed 12:50:20 AM 51.3610 -0.4407 50° Northeast 247 284 9,000  Level FlightAware ADS-B
Wed 12:50:24 AM 51.3640 -0.4340 55° Northeast 249 287 9,000  Level FlightAware ADS-B
Wed 12:50:27 AM 51.3656 -0.4291 62° Northeast 252 290 9,000  Level FlightAware ADS-B
Wed 12:50:32 AM 51.3674 -0.4217 69° East 254 292 9,000  Level FlightAware ADS-B
Wed 12:50:36 AM 51.3687 -0.4130 76° East 256 295 9,000  Level FlightAware ADS-B
Wed 12:50:40 AM 51.3691 -0.4066 84° East 258 297 9,000  Level FlightAware ADS-B
Wed 12:50:44 AM 51.3690 -0.3997 91° East 258 297 9,000  Level FlightAware ADS-B
Wed 12:50:48 AM 51.3682 -0.3912 99° East 259 298 9,000  Level FlightAware ADS-B
Wed 12:50:52 AM 51.3667 -0.3834 107° East 260 299 9,000  Level FlightAware ADS-B
Wed 12:50:55 AM 51.3652 -0.3777 113° Southeast 261 300 9,000  Level FlightAware ADS-B
Wed 12:50:58 AM 51.3634 -0.3726 120° Southeast 261 300 9,000  Level FlightAware ADS-B
Wed 12:51:02 AM 51.3605 -0.3664 126° Southeast 261 300 9,000  Level FlightAware ADS-B
Wed 12:51:06 AM 51.3577 -0.3615 133° Southeast 261 300 9,000  Level FlightAware ADS-B
Wed 12:51:10 AM 51.3542 -0.3568 140° Southeast 260 299 9,000  Level FlightAware ADS-B
Wed 12:51:13 AM 51.3511 -0.3532 144° Southeast 259 298 9,000  Level FlightAware ADS-B
Wed 12:51:17 AM 51.3463 -0.3485 148° Southeast 258 297 9,000  Level FlightAware ADS-B
Wed 12:51:33 AM 51.3303 -0.3330 149° Southeast 257 296 9,000 -2,647 Level FlightAware ADS-B
Wed 12:51:51 AM 51.3122 -0.3154 149° Southeast 238 274 7,500  Descending FlightAware UK
Wed 12:51:52 AM 51.3112 -0.3145 149° Southeast 258 297 9,000 5,625 Climbing FlightAware ADS-B
Wed 12:52:07 AM 51.2959 -0.2995 149° Southeast 257 296 9,000  Level FlightAware ADS-B
Wed 12:52:11 AM 51.2921 -0.2962 152° Southeast 257 296 9,000  Level FlightAware ADS-B
Wed 12:52:15 AM 51.2872 -0.2930 158° South 255 293 9,000  Level FlightAware ADS-B
Wed 12:52:19 AM 51.2832 -0.2911 163° South 253 291 9,000  Level FlightAware ADS-B
Wed 12:52:24 AM 51.2775 -0.2900 173° South 250 288 9,000  Level FlightAware ADS-B
Wed 12:52:28 AM 51.2724 -0.2901 181° South 246 283 9,000  Level FlightAware ADS-B
Wed 12:52:35 AM 51.2651 -0.2923 191° South 244 281 9,000  Level FlightAware ADS-B
Wed 12:52:40 AM 51.2598 -0.2956 202° Southwest 239 275 9,000  Level FlightAware ADS-B
Wed 12:52:43 AM 51.2568 -0.2983 209° Southwest 237 273 9,000  Level FlightAware ADS-B
Wed 12:52:47 AM 51.2537 -0.3016 214° Southwest 234 269 9,000  Level FlightAware ADS-B
Wed 12:52:51 AM 51.2506 -0.3059 221° Southwest 230 265 9,000  Level FlightAware ADS-B
Wed 12:52:54 AM 51.2479 -0.3102 225° Southwest 228 262 9,000  Level FlightAware ADS-B
Wed 12:52:58 AM 51.2459 -0.3144 233° Southwest 226 260 9,000  Level FlightAware ADS-B
Wed 12:53:03 AM 51.2430 -0.3219 238° Southwest 223 257 9,000  Level FlightAware ADS-B
Wed 12:53:06 AM 51.2417 -0.3264 245° Southwest 221 254 9,000  Level FlightAware ADS-B
Wed 12:53:11 AM 51.2402 -0.3336 252° West 220 253 9,000  Level FlightAware ADS-B
Wed 12:53:14 AM 51.2395 -0.3386 257° West 218 251 9,000  Level FlightAware ADS-B
Wed 12:53:17 AM 51.2391 -0.3436 263° West 217 250 9,000  Level FlightAware ADS-B
Wed 12:53:22 AM 51.2390 -0.3514 269° West 215 247 9,000  Level FlightAware ADS-B
Wed 12:53:25 AM 51.2393 -0.3571 275° West 213 245 9,000  Level FlightAware ADS-B
Wed 12:53:29 AM 51.2400 -0.3627 281° West 213 245 9,000  Level FlightAware ADS-B
Wed 12:53:33 AM 51.2411 -0.3687 286° West 212 244 9,000  Level FlightAware ADS-B
Wed 12:53:37 AM 51.2429 -0.3751 294° West 212 244 9,000  Level FlightAware ADS-B
Wed 12:53:43 AM 51.2451 -0.3813 300° West 212 244 9,000  Level FlightAware ADS-B
Wed 12:53:47 AM 51.2478 -0.3871 306° West 212 244 9,000  Level FlightAware ADS-B
Wed 12:53:50 AM 51.2495 -0.3899 315° West 213 245 9,000  Level FlightAware ADS-B
Wed 12:53:55 AM 51.2536 -0.3958 318° Northwest 214 246 9,000  Level FlightAware ADS-B
Wed 12:53:58 AM 51.2564 -0.3989 325° Northwest 216 249 9,000  Level FlightAware ADS-B
Wed 12:54:10 AM 51.2662 -0.4087 328° Northwest 216 249 9,000  Level FlightAware ADS-B
Wed 12:54:25 AM 51.2796 -0.4218 329° Northwest 215 247 9,000  Level FlightAware ADS-B
Wed 12:54:41 AM 51.2925 -0.4345 328° Northwest 216 249 9,000 -2,903 Level FlightAware ADS-B
Wed 12:54:56 AM 51.3061 -0.4476 328° Northwest 236 272 7,500  Descending FlightAware UK
Wed 12:54:57 AM 51.3061 -0.4478 328° Northwest 216 249 9,000 9,000 Climbing FlightAware ADS-B
Wed 12:55:06 AM 51.3142 -0.4556 329° Northwest 216 249 9,000  Level FlightAware ADS-B
Wed 12:55:12 AM 51.3194 -0.4594 335° Northwest 218 251 9,000  Level FlightAware ADS-B
Wed 12:55:15 AM 51.3225 -0.4610 343° North 220 253 9,000  Level FlightAware ADS-B
Wed 12:55:20 AM 51.3280 -0.4629 348° North 222 255 9,000  Level FlightAware ADS-B
Wed 12:55:24 AM 51.3317 -0.4639 350° North 223 257 9,000  Level FlightAware ADS-B
Wed 12:55:39 AM 51.3473 -0.4671 353° North 224 258 9,000 -581 Level FlightAware ADS-B
Wed 12:55:55 AM 51.3629 -0.4702 353° North 222 255 8,700 -960 Descending FlightAware ADS-B
Wed 12:56:04 AM 51.3720 -0.4720 353° North 222 255 8,600 -1,000 Descending FlightAware ADS-B
Wed 12:56:19 AM 51.3875 -0.4755 352° North 223 257 8,300 -1,263 Descending FlightAware ADS-B
Wed 12:56:23 AM 51.3908 -0.4761 353° North 224 258 8,200 -750 Descending FlightAware ADS-B
Wed 12:56:27 AM 51.3958 -0.4768 355° North 225 259 8,200 -857 Level FlightAware ADS-B
Wed 12:56:30 AM 51.3996 -0.4765 North 229 264 8,100 -857 Descending FlightAware ADS-B
Wed 12:56:34 AM 51.4037 -0.4752 11° North 232 267 8,100 -667 Level FlightAware ADS-B
Wed 12:56:39 AM 51.4076 -0.4729 20° North 236 272 8,000 -600 Descending FlightAware ADS-B
Wed 12:56:44 AM 51.4129 -0.4681 29° Northeast 240 276 8,000  Level FlightAware ADS-B
Wed 12:56:48 AM 51.4163 -0.4635 40° Northeast 243 280 8,000  Level FlightAware ADS-B
Wed 12:56:51 AM 51.4186 -0.4595 47° Northeast 246 283 8,000  Level FlightAware ADS-B
Wed 12:56:54 AM 51.4210 -0.4540 55° Northeast 248 285 8,000  Level FlightAware ADS-B
Wed 12:56:58 AM 51.4230 -0.4481 62° Northeast 250 288 8,000  Level FlightAware ADS-B
Wed 12:57:02 AM 51.4245 -0.4419 69° East 251 289 8,000  Level FlightAware ADS-B
Wed 12:57:05 AM 51.4254 -0.4356 77° East 253 291 8,000  Level FlightAware ADS-B
Wed 12:57:08 AM 51.4259 -0.4292 83° East 254 292 8,000  Level FlightAware ADS-B
Wed 12:57:12 AM 51.4259 -0.4217 90° East 255 293 8,000  Level FlightAware ADS-B
Wed 12:57:16 AM 51.4251 -0.4141 100° East 255 293 8,000  Level FlightAware ADS-B
Wed 12:57:20 AM 51.4241 -0.4082 105° East 255 293 8,000  Level FlightAware ADS-B
Wed 12:57:23 AM 51.4227 -0.4028 112° Southeast 254 292 8,000  Level FlightAware ADS-B
Wed 12:57:27 AM 51.4210 -0.3980 120° Southeast 254 292 8,000  Level FlightAware ADS-B
Wed 12:57:30 AM 51.4184 -0.3919 124° Southeast 254 292 8,000  Level FlightAware ADS-B
Wed 12:57:34 AM 51.4150 -0.3856 131° Southeast 253 291 8,000  Level FlightAware ADS-B
Wed 12:57:38 AM 51.4114 -0.3800 136° Southeast 252 290 8,000  Level FlightAware ADS-B
Wed 12:57:45 AM 51.4062 -0.3726 138° Southeast 251 289 8,000  Level FlightAware ADS-B
Wed 12:57:57 AM 51.3956 -0.3579 139° Southeast 251 289 8,000 -692 Level FlightAware ADS-B
Wed 12:58:11 AM 51.3827 -0.3407 140° Southeast 250 288 7,700 -1,143 Descending FlightAware ADS-B
Wed 12:58:18 AM 51.3770 -0.3320 136° Southeast 249 287 7,600 -1,091 Descending FlightAware ADS-B
Wed 12:58:22 AM 51.3739 -0.3253 127° Southeast 250 288 7,500 -750 Descending FlightAware ADS-B
Wed 12:58:26 AM 51.3719 -0.3195 119° Southeast 251 289 7,500 -750 Level FlightAware ADS-B
Wed 12:58:30 AM 51.3703 -0.3124 110° East 251 289 7,400 -1,500 Descending FlightAware ADS-B
Wed 12:58:34 AM 51.3693 -0.3055 103° East 250 288 7,300 -750 Descending FlightAware ADS-B
Wed 12:58:38 AM 51.3688 -0.2989 97° East 249 287 7,300 -857 Level FlightAware ADS-B
Wed 12:58:41 AM 51.3687 -0.2930 92° East 248 285 7,200 -857 Descending FlightAware ADS-B
Wed 12:58:45 AM 51.3689 -0.2853 88° East 246 283 7,200 -300 Level FlightAware ADS-B
Wed 12:59:01 AM 51.3703 -0.2571 85° East 234 269 7,100 -581 Descending FlightAware ADS-B
Wed 12:59:16 AM 51.3718 -0.2314 85° East 222 255 6,900 -774 Descending FlightAware ADS-B
Wed 12:59:32 AM 51.3734 -0.2068 84° East 217 250 6,700 -828 Descending FlightAware ADS-B
Wed 12:59:45 AM 51.3749 -0.1855 84° East 215 247 6,500 -828 Descending FlightAware ADS-B
Wed 01:00:01 AM 51.3767 -0.1616 83° East 214 246 6,300 -774 Descending FlightAware ADS-B
Wed 01:00:16 AM 51.3785 -0.1379 83° East 213 245 6,100 -600 Descending FlightAware ADS-B
Wed 01:00:31 AM 51.3804 -0.1136 83° East 213 245 6,000 -400 Descending FlightAware ADS-B
Wed 01:00:46 AM 51.3823 -0.0896 83° East 214 246 5,900 -462 Descending FlightAware ADS-B
Wed 01:00:57 AM 51.3836 -0.0725 83° East 214 246 5,800 -444 Descending FlightAware ADS-B
Wed 01:01:13 AM 51.3855 -0.0483 83° East 213 245 5,700 -387 Descending FlightAware ADS-B
Wed 01:01:28 AM 51.3874 -0.0243 83° East 213 245 5,600 -429 Descending FlightAware ADS-B
Wed 01:01:41 AM 51.3891 -0.0041 82° East 212 244 5,500 -333 Descending FlightAware ADS-B
Wed 01:01:46 AM 51.3901 0.0033 78° East 211 243 5,500  Level FlightAware ADS-B
Wed 01:01:50 AM 51.3912 0.0081 70° East 210 242 5,500 -857 Level FlightAware ADS-B
Wed 01:01:53 AM 51.3929 0.0134 63° Northeast 211 243 5,400 -1,000 Descending FlightAware ADS-B
Wed 01:01:56 AM 51.3947 0.0173 54° Northeast 210 242 5,400  Level FlightAware ADS-B
Wed 01:02:03 AM 51.3996 0.0243 42° Northeast 207 238 5,400  Level FlightAware ADS-B
Wed 01:02:07 AM 51.4028 0.0272 29° Northeast 206 237 5,400 -600 Level FlightAware ADS-B
Wed 01:02:13 AM 51.4075 0.0298 19° North 204 235 5,300 -667 Descending FlightAware ADS-B
Wed 01:02:16 AM 51.4109 0.0308 10° North 202 232 5,300  Level FlightAware ADS-B
Wed 01:02:20 AM 51.4144 0.0314 North 200 230 5,300 -316 Level FlightAware ADS-B
Wed 01:02:35 AM 51.4286 0.0323 North 199 229 5,200 -261 Descending FlightAware ADS-B
Wed 01:02:43 AM 51.4360 0.0325 North 199 229 5,200  Level FlightAware ADS-B
Wed 01:02:49 AM 51.4408 0.0318 354° North 197 227 5,200 -600 Level FlightAware ADS-B
Wed 01:02:53 AM 51.4447 0.0298 343° North 194 223 5,100 -667 Descending FlightAware ADS-B
Wed 01:02:58 AM 51.4486 0.0266 332° Northwest 192 221 5,100  Level FlightAware ADS-B
Wed 01:03:03 AM 51.4511 0.0232 320° Northwest 191 220 5,100  Level FlightAware ADS-B
Wed 01:03:08 AM 51.4547 0.0169 312° West 189 217 5,100  Level FlightAware ADS-B
Wed 01:03:11 AM 51.4564 0.0129 305° West 188 216 5,100 -857 Level FlightAware ADS-B
Wed 01:03:15 AM 51.4581 0.0087 303° West 188 216 5,000 -545 Descending FlightAware ADS-B
Wed 01:03:22 AM 51.4614 -0.0002 301° West 187 215 5,000 -522 Level FlightAware ADS-B
Wed 01:03:38 AM 51.4682 -0.0191 300° West 186 214 4,800 -667 Descending FlightAware ADS-B
Wed 01:03:49 AM 51.4729 -0.0321 300° West 187 215 4,700 -400 Descending FlightAware ADS-B
Wed 01:03:53 AM 51.4741 -0.0364 294° West 187 215 4,700 -857 Level FlightAware ADS-B
Wed 01:03:56 AM 51.4751 -0.0409 290° West 186 214 4,600 -1,000 Descending FlightAware ADS-B
Wed 01:03:59 AM 51.4759 -0.0451 287° West 186 214 4,600 -750 Level FlightAware ADS-B
Wed 01:04:04 AM 51.4766 -0.0511 281° West 185 213 4,500 -600 Descending FlightAware ADS-B
Wed 01:04:09 AM 51.4772 -0.0581 278° West 184 212 4,500  Level FlightAware ADS-B
Wed 01:04:25 AM 51.4781 -0.0801 274° West 184 212 4,500 -500 Level FlightAware ADS-B
Wed 01:04:33 AM 51.4782 -0.0913 271° West 181 208 4,300 -1,304 Descending FlightAware ADS-B
Wed 01:04:48 AM 51.4781 -0.1113 270° West 181 208 4,000 -1,355 Descending FlightAware ADS-B
Wed 01:05:04 AM 51.4781 -0.1326 270° West 183 211 3,600 -1,286 Descending FlightAware ADS-B
Wed 01:05:16 AM 51.4781 -0.1488 270° West 176 203 3,400 -1,071 Descending FlightAware ADS-B
Wed 01:05:32 AM 51.4783 -0.1683 271° West 162 186 3,100 -968 Descending FlightAware ADS-B
Wed 01:05:47 AM 51.4782 -0.1859 269° West 153 176 2,900 -857 Descending FlightAware ADS-B
Wed 01:06:00 AM 51.4782 -0.2001 270° West 151 174 2,700 -857 Descending FlightAware ADS-B
Wed 01:06:15 AM 51.4782 -0.2161 270° West 151 174 2,500 -3,750 Descending FlightAware ADS-B
Wed 01:06:32 AM 51.4781 -0.2366 270° West 166 191 700 -750 Descending FlightAware UK
Wed 01:06:39 AM 51.4781 -0.2435 270° West 149 171 2,200 3,545 Climbing FlightAware ADS-B
Wed 01:06:54 AM 51.4781 -0.2603 270° West 149 171 2,000 -774 Descending FlightAware ADS-B
Wed 01:07:10 AM 51.4781 -0.2769 270° West 148 170 1,800 -740 Descending FlightAware ADS-B
Wed 01:08:07 AM 51.4780 -0.3360 270° West 134 154 1,100 -732 Descending FlightAware ADS-B
Wed 01:08:32 AM 51.4780 -0.3590 270° West 133 153 800 -764 Descending FlightAware ADS-B
Wed 01:09:02 AM 51.4780 -0.3890 270° West 132 152 400 -750 Descending FlightAware ADS-B
Wed 01:09:12 AM 51.4780 -0.3970 270° West 130 150 300 -600 Descending FlightAware ADS-B
Wed 01:09:47 AM 51.4780 -0.4270 270° West 137 158 -514 Descending FlightAware ADS-B
Wed 01:10:12 AM 51.4780 -0.4500 270° West 137 158  Level FlightAware ADS-B
Wed 01:12:00 AM 51.4667 -0.4500 129° Southeast  Level FlightAware Approximate

Login

Don't have an account? Register now (free) for customized features, flight alerts, and more!